sensor_id;sensor_type;location;lat;lon;timestamp;P1;durP1;ratioP1;P2;durP2;ratioP2
21213;SDS011;10764;50.850;2.904;2024-03-17T00:01:01;1201.97;;;999.90;;
21213;SDS011;10764;50.850;2.904;2024-03-17T00:03:29;1199.97;;;999.90;;
21213;SDS011;10764;50.850;2.904;2024-03-17T00:05:56;1199.47;;;999.90;;
21213;SDS011;10764;50.850;2.904;2024-03-17T00:08:23;1203.13;;;999.90;;
21213;SDS011;10764;50.850;2.904;2024-03-17T00:10:50;1204.15;;;999.90;;
21213;SDS011;10764;50.850;2.904;2024-03-17T00:13:17;1208.32;;;999.90;;
21213;SDS011;10764;50.850;2.904;2024-03-17T00:15:43;1203.13;;;999.90;;
21213;SDS011;10764;50.850;2.904;2024-03-17T00:18:10;1200.72;;;999.90;;
21213;SDS011;10764;50.850;2.904;2024-03-17T00:20:36;1207.38;;;999.90;;
21213;SDS011;10764;50.850;2.904;2024-03-17T00:23:04;1207.63;;;999.90;;
21213;SDS011;10764;50.850;2.904;2024-03-17T00:25:32;1204.97;;;999.90;;
21213;SDS011;10764;50.850;2.904;2024-03-17T00:27:59;1207.22;;;999.90;;
21213;SDS011;10764;50.850;2.904;2024-03-17T00:30:26;1209.80;;;999.90;;
21213;SDS011;10764;50.850;2.904;2024-03-17T00:32:52;1210.33;;;999.90;;
21213;SDS011;10764;50.850;2.904;2024-03-17T00:35:18;1211.43;;;999.90;;
21213;SDS011;10764;50.850;2.904;2024-03-17T00:37:47;1232.55;;;999.90;;
21213;SDS011;10764;50.850;2.904;2024-03-17T00:40:14;1217.28;;;999.90;;
21213;SDS011;10764;50.850;2.904;2024-03-17T00:42:43;1215.90;;;999.90;;
21213;SDS011;10764;50.850;2.904;2024-03-17T00:45:10;1211.68;;;999.90;;
21213;SDS011;10764;50.850;2.904;2024-03-17T00:47:37;1207.78;;;999.90;;
21213;SDS011;10764;50.850;2.904;2024-03-17T00:50:03;1210.45;;;999.90;;
21213;SDS011;10764;50.850;2.904;2024-03-17T00:52:30;1210.63;;;999.90;;
21213;SDS011;10764;50.850;2.904;2024-03-17T00:54:56;1207.03;;;999.90;;
21213;SDS011;10764;50.850;2.904;2024-03-17T00:57:22;1212.30;;;999.90;;
21213;SDS011;10764;50.850;2.904;2024-03-17T00:59:48;1212.32;;;999.90;;
21213;SDS011;10764;50.850;2.904;2024-03-17T01:02:15;1213.20;;;999.90;;
21213;SDS011;10764;50.850;2.904;2024-03-17T01:04:44;1210.80;;;999.90;;
21213;SDS011;10764;50.850;2.904;2024-03-17T01:07:11;1211.65;;;999.90;;
21213;SDS011;10764;50.850;2.904;2024-03-17T01:09:37;1212.43;;;999.90;;
21213;SDS011;10764;50.850;2.904;2024-03-17T01:12:04;1214.38;;;999.90;;
21213;SDS011;10764;50.850;2.904;2024-03-17T01:14:31;1212.75;;;999.90;;
21213;SDS011;10764;50.850;2.904;2024-03-17T01:17:06;1214.30;;;999.90;;
21213;SDS011;10764;50.850;2.904;2024-03-17T01:19:32;1212.63;;;999.90;;
21213;SDS011;10764;50.850;2.904;2024-03-17T01:22:00;1212.65;;;999.90;;
21213;SDS011;10764;50.850;2.904;2024-03-17T01:24:26;1215.03;;;999.90;;
21213;SDS011;10764;50.850;2.904;2024-03-17T01:26:59;1214.40;;;999.90;;
21213;SDS011;10764;50.850;2.904;2024-03-17T01:29:27;1212.35;;;999.90;;
21213;SDS011;10764;50.850;2.904;2024-03-17T01:31:53;1215.57;;;999.90;;
21213;SDS011;10764;50.850;2.904;2024-03-17T01:34:19;1230.05;;;999.90;;
21213;SDS011;10764;50.850;2.904;2024-03-17T01:36:45;1225.85;;;999.90;;
21213;SDS011;10764;50.850;2.904;2024-03-17T01:39:11;1198.35;;;999.90;;
21213;SDS011;10764;50.850;2.904;2024-03-17T01:41:38;1221.97;;;999.90;;
21213;SDS011;10764;50.850;2.904;2024-03-17T01:44:04;1202.05;;;999.90;;
21213;SDS011;10764;50.850;2.904;2024-03-17T01:46:30;1208.97;;;999.90;;
21213;SDS011;10764;50.850;2.904;2024-03-17T01:48:56;1205.57;;;999.90;;
21213;SDS011;10764;50.850;2.904;2024-03-17T01:51:23;1205.88;;;999.90;;
21213;SDS011;10764;50.850;2.904;2024-03-17T01:53:49;1209.07;;;999.90;;
21213;SDS011;10764;50.850;2.904;2024-03-17T01:56:16;1214.22;;;999.90;;
21213;SDS011;10764;50.850;2.904;2024-03-17T01:58:43;1209.07;;;999.90;;
21213;SDS011;10764;50.850;2.904;2024-03-17T02:01:13;1212.57;;;999.90;;
21213;SDS011;10764;50.850;2.904;2024-03-17T02:03:40;1220.78;;;999.90;;
21213;SDS011;10764;50.850;2.904;2024-03-17T02:06:10;1234.00;;;999.90;;
21213;SDS011;10764;50.850;2.904;2024-03-17T02:08:49;1231.97;;;999.90;;
21213;SDS011;10764;50.850;2.904;2024-03-17T02:11:25;1230.65;;;999.90;;
21213;SDS011;10764;50.850;2.904;2024-03-17T02:13:56;1226.80;;;999.90;;
21213;SDS011;10764;50.850;2.904;2024-03-17T02:16:23;1217.70;;;999.90;;
21213;SDS011;10764;50.850;2.904;2024-03-17T02:18:49;1197.53;;;999.90;;
21213;SDS011;10764;50.850;2.904;2024-03-17T02:21:19;1227.43;;;999.90;;
21213;SDS011;10764;50.850;2.904;2024-03-17T02:23:48;1231.55;;;999.90;;
21213;SDS011;10764;50.850;2.904;2024-03-17T02:26:14;1216.35;;;999.90;;
21213;SDS011;10764;50.850;2.904;2024-03-17T02:28:40;1212.15;;;999.90;;
21213;SDS011;10764;50.850;2.904;2024-03-17T02:31:08;1201.50;;;999.90;;
21213;SDS011;10764;50.850;2.904;2024-03-17T02:33:35;1196.50;;;999.90;;
21213;SDS011;10764;50.850;2.904;2024-03-17T02:36:02;1200.05;;;999.90;;
21213;SDS011;10764;50.850;2.904;2024-03-17T02:38:29;1202.55;;;999.90;;
21213;SDS011;10764;50.850;2.904;2024-03-17T02:41:15;1196.97;;;999.90;;
21213;SDS011;10764;50.850;2.904;2024-03-17T02:43:41;1198.72;;;999.90;;
21213;SDS011;10764;50.850;2.904;2024-03-17T02:46:10;1198.72;;;999.90;;
21213;SDS011;10764;50.850;2.904;2024-03-17T02:48:39;1199.43;;;999.90;;
21213;SDS011;10764;50.850;2.904;2024-03-17T02:51:10;1199.80;;;999.90;;
21213;SDS011;10764;50.850;2.904;2024-03-17T02:53:38;1202.53;;;999.90;;
21213;SDS011;10764;50.850;2.904;2024-03-17T02:56:05;1223.50;;;999.90;;
21213;SDS011;10764;50.850;2.904;2024-03-17T02:58:35;1201.50;;;999.90;;
21213;SDS011;10764;50.850;2.904;2024-03-17T03:01:02;1194.95;;;999.90;;
21213;SDS011;10764;50.850;2.904;2024-03-17T03:03:33;1204.00;;;999.90;;
21213;SDS011;10764;50.850;2.904;2024-03-17T03:05:59;1208.30;;;999.90;;
21213;SDS011;10764;50.850;2.904;2024-03-17T03:08:32;1199.38;;;999.90;;
21213;SDS011;10764;50.850;2.904;2024-03-17T03:10:59;1196.50;;;999.90;;
21213;SDS011;10764;50.850;2.904;2024-03-17T03:13:25;1196.93;;;999.90;;
21213;SDS011;10764;50.850;2.904;2024-03-17T03:15:52;1204.93;;;999.90;;
21213;SDS011;10764;50.850;2.904;2024-03-17T03:18:18;1206.13;;;999.90;;
21213;SDS011;10764;50.850;2.904;2024-03-17T03:20:51;1208.50;;;999.90;;
21213;SDS011;10764;50.850;2.904;2024-03-17T03:23:21;1213.68;;;999.90;;
21213;SDS011;10764;50.850;2.904;2024-03-17T03:25:46;1207.90;;;999.90;;
21213;SDS011;10764;50.850;2.904;2024-03-17T03:28:13;1212.25;;;999.90;;
21213;SDS011;10764;50.850;2.904;2024-03-17T03:30:39;1206.35;;;999.90;;
21213;SDS011;10764;50.850;2.904;2024-03-17T03:33:05;1209.15;;;999.90;;
21213;SDS011;10764;50.850;2.904;2024-03-17T03:35:31;1210.38;;;999.90;;
21213;SDS011;10764;50.850;2.904;2024-03-17T03:37:58;1208.78;;;999.90;;
21213;SDS011;10764;50.850;2.904;2024-03-17T03:40:25;1207.40;;;999.90;;
21213;SDS011;10764;50.850;2.904;2024-03-17T03:42:52;1212.00;;;999.90;;
21213;SDS011;10764;50.850;2.904;2024-03-17T03:45:18;1209.70;;;999.90;;
21213;SDS011;10764;50.850;2.904;2024-03-17T03:47:46;1211.63;;;999.90;;
21213;SDS011;10764;50.850;2.904;2024-03-17T03:50:14;1211.10;;;999.90;;
21213;SDS011;10764;50.850;2.904;2024-03-17T03:52:42;1223.80;;;999.90;;
21213;SDS011;10764;50.850;2.904;2024-03-17T03:55:11;1234.10;;;999.90;;
21213;SDS011;10764;50.850;2.904;2024-03-17T03:57:41;1230.23;;;999.90;;
21213;SDS011;10764;50.850;2.904;2024-03-17T04:00:07;1231.57;;;999.90;;
21213;SDS011;10764;50.850;2.904;2024-03-17T04:02:47;1229.90;;;999.90;;
21213;SDS011;10764;50.850;2.904;2024-03-17T04:05:15;1231.78;;;999.90;;
21213;SDS011;10764;50.850;2.904;2024-03-17T04:07:41;1230.07;;;999.90;;
21213;SDS011;10764;50.850;2.904;2024-03-17T04:10:08;1229.90;;;999.90;;
21213;SDS011;10764;50.850;2.904;2024-03-17T04:12:35;1228.78;;;999.90;;
21213;SDS011;10764;50.850;2.904;2024-03-17T04:15:01;1232.65;;;999.90;;
21213;SDS011;10764;50.850;2.904;2024-03-17T04:17:27;1231.70;;;999.90;;
21213;SDS011;10764;50.850;2.904;2024-03-17T04:19:53;1232.57;;;999.90;;
21213;SDS011;10764;50.850;2.904;2024-03-17T04:22:20;1232.78;;;999.90;;
21213;SDS011;10764;50.850;2.904;2024-03-17T04:24:47;1230.72;;;999.90;;
21213;SDS011;10764;50.850;2.904;2024-03-17T04:27:22;1231.05;;;999.90;;
21213;SDS011;10764;50.850;2.904;2024-03-17T04:29:54;1230.75;;;999.90;;
21213;SDS011;10764;50.850;2.904;2024-03-17T04:32:22;1231.53;;;999.90;;
21213;SDS011;10764;50.850;2.904;2024-03-17T04:34:49;1232.95;;;999.90;;
21213;SDS011;10764;50.850;2.904;2024-03-17T04:37:15;1230.93;;;999.90;;
21213;SDS011;10764;50.850;2.904;2024-03-17T04:39:43;1230.10;;;999.90;;
21213;SDS011;10764;50.850;2.904;2024-03-17T04:42:14;1227.80;;;999.90;;
21213;SDS011;10764;50.850;2.904;2024-03-17T04:44:42;1229.00;;;999.90;;
21213;SDS011;10764;50.850;2.904;2024-03-17T04:47:09;1229.90;;;999.90;;
21213;SDS011;10764;50.850;2.904;2024-03-17T04:49:39;1231.43;;;999.90;;
21213;SDS011;10764;50.850;2.904;2024-03-17T04:52:06;1232.68;;;999.90;;
21213;SDS011;10764;50.850;2.904;2024-03-17T04:54:33;1227.72;;;999.90;;
21213;SDS011;10764;50.850;2.904;2024-03-17T04:56:59;1203.60;;;999.90;;
21213;SDS011;10764;50.850;2.904;2024-03-17T04:59:26;1218.00;;;999.90;;
21213;SDS011;10764;50.850;2.904;2024-03-17T05:01:53;1218.93;;;999.90;;
21213;SDS011;10764;50.850;2.904;2024-03-17T05:04:19;1221.13;;;999.90;;
21213;SDS011;10764;50.850;2.904;2024-03-17T05:06:45;1199.57;;;999.90;;
21213;SDS011;10764;50.850;2.904;2024-03-17T05:09:15;1198.00;;;999.90;;
21213;SDS011;10764;50.850;2.904;2024-03-17T05:11:44;1197.35;;;999.90;;
21213;SDS011;10764;50.850;2.904;2024-03-17T05:14:11;1205.80;;;999.90;;
21213;SDS011;10764;50.850;2.904;2024-03-17T05:16:37;1199.22;;;999.90;;
21213;SDS011;10764;50.850;2.904;2024-03-17T05:19:03;1220.97;;;999.90;;
21213;SDS011;10764;50.850;2.904;2024-03-17T05:21:29;1224.53;;;999.90;;
21213;SDS011;10764;50.850;2.904;2024-03-17T05:23:56;1195.40;;;999.90;;
21213;SDS011;10764;50.850;2.904;2024-03-17T05:26:23;1195.27;;;999.90;;
21213;SDS011;10764;50.850;2.904;2024-03-17T05:28:50;1192.63;;;999.90;;
21213;SDS011;10764;50.850;2.904;2024-03-17T05:31:16;1197.68;;;999.90;;
21213;SDS011;10764;50.850;2.904;2024-03-17T05:33:43;1220.22;;;999.90;;
21213;SDS011;10764;50.850;2.904;2024-03-17T05:36:10;1225.07;;;999.90;;
21213;SDS011;10764;50.850;2.904;2024-03-17T05:38:36;1226.03;;;999.90;;
21213;SDS011;10764;50.850;2.904;2024-03-17T05:41:07;1224.68;;;999.90;;
21213;SDS011;10764;50.850;2.904;2024-03-17T05:43:38;1226.10;;;999.90;;
21213;SDS011;10764;50.850;2.904;2024-03-17T05:46:05;1224.13;;;999.90;;
21213;SDS011;10764;50.850;2.904;2024-03-17T05:48:34;1222.63;;;999.90;;
21213;SDS011;10764;50.850;2.904;2024-03-17T05:51:08;1222.07;;;999.90;;
21213;SDS011;10764;50.850;2.904;2024-03-17T05:53:38;1224.93;;;999.90;;
21213;SDS011;10764;50.850;2.904;2024-03-17T05:56:05;1224.10;;;999.90;;
21213;SDS011;10764;50.850;2.904;2024-03-17T05:58:36;1211.60;;;999.90;;
21213;SDS011;10764;50.850;2.904;2024-03-17T06:01:03;1226.95;;;999.90;;
21213;SDS011;10764;50.850;2.904;2024-03-17T06:03:29;1223.65;;;999.90;;
21213;SDS011;10764;50.850;2.904;2024-03-17T06:05:55;1222.78;;;999.90;;
21213;SDS011;10764;50.850;2.904;2024-03-17T06:08:24;1228.78;;;999.90;;
21213;SDS011;10764;50.850;2.904;2024-03-17T06:10:50;1224.68;;;999.90;;
21213;SDS011;10764;50.850;2.904;2024-03-17T06:13:16;1221.20;;;999.90;;
21213;SDS011;10764;50.850;2.904;2024-03-17T06:15:43;1223.68;;;999.90;;
21213;SDS011;10764;50.850;2.904;2024-03-17T06:18:11;1222.18;;;999.90;;
21213;SDS011;10764;50.850;2.904;2024-03-17T06:20:43;1202.57;;;999.90;;
21213;SDS011;10764;50.850;2.904;2024-03-17T06:23:13;1225.00;;;999.90;;
21213;SDS011;10764;50.850;2.904;2024-03-17T06:28:13;1211.67;;;999.90;;
21213;SDS011;10764;50.850;2.904;2024-03-17T06:30:43;1205.28;;;999.90;;
21213;SDS011;10764;50.850;2.904;2024-03-17T06:33:13;1222.30;;;999.90;;
21213;SDS011;10764;50.850;2.904;2024-03-17T06:35:42;1223.00;;;999.90;;
21213;SDS011;10764;50.850;2.904;2024-03-17T06:38:07;1225.70;;;999.90;;
21213;SDS011;10764;50.850;2.904;2024-03-17T06:40:35;1225.33;;;999.90;;
21213;SDS011;10764;50.850;2.904;2024-03-17T06:43:02;1227.72;;;999.90;;
21213;SDS011;10764;50.850;2.904;2024-03-17T06:45:28;1227.47;;;999.90;;
21213;SDS011;10764;50.850;2.904;2024-03-17T06:47:54;1226.80;;;999.90;;
21213;SDS011;10764;50.850;2.904;2024-03-17T06:50:21;1227.15;;;999.90;;
21213;SDS011;10764;50.850;2.904;2024-03-17T06:52:48;1221.82;;;999.90;;
21213;SDS011;10764;50.850;2.904;2024-03-17T06:55:14;1206.72;;;999.90;;
21213;SDS011;10764;50.850;2.904;2024-03-17T06:57:41;1214.93;;;999.90;;
21213;SDS011;10764;50.850;2.904;2024-03-17T07:00:12;1222.90;;;999.90;;
21213;SDS011;10764;50.850;2.904;2024-03-17T07:02:45;1220.60;;;999.90;;
21213;SDS011;10764;50.850;2.904;2024-03-17T07:05:12;1222.07;;;999.90;;
21213;SDS011;10764;50.850;2.904;2024-03-17T07:07:42;1222.00;;;999.90;;
21213;SDS011;10764;50.850;2.904;2024-03-17T07:10:09;1221.03;;;999.90;;
21213;SDS011;10764;50.850;2.904;2024-03-17T07:12:39;1218.27;;;999.90;;
21213;SDS011;10764;50.850;2.904;2024-03-17T07:15:05;1217.43;;;999.90;;
21213;SDS011;10764;50.850;2.904;2024-03-17T07:17:32;1219.00;;;999.90;;
21213;SDS011;10764;50.850;2.904;2024-03-17T07:20:01;1216.97;;;999.90;;
21213;SDS011;10764;50.850;2.904;2024-03-17T07:22:29;1216.35;;;999.90;;
21213;SDS011;10764;50.850;2.904;2024-03-17T07:24:55;1217.03;;;999.90;;
21213;SDS011;10764;50.850;2.904;2024-03-17T07:27:26;1213.22;;;999.90;;
21213;SDS011;10764;50.850;2.904;2024-03-17T07:29:52;1213.85;;;999.90;;
21213;SDS011;10764;50.850;2.904;2024-03-17T07:32:18;1217.57;;;999.90;;
21213;SDS011;10764;50.850;2.904;2024-03-17T07:34:44;1213.97;;;999.90;;
21213;SDS011;10764;50.850;2.904;2024-03-17T07:37:10;1212.68;;;999.90;;
21213;SDS011;10764;50.850;2.904;2024-03-17T07:39:36;1214.05;;;999.90;;
21213;SDS011;10764;50.850;2.904;2024-03-17T07:42:02;1214.82;;;999.90;;
21213;SDS011;10764;50.850;2.904;2024-03-17T07:44:28;1218.77;;;999.90;;
21213;SDS011;10764;50.850;2.904;2024-03-17T07:47:02;1219.10;;;999.90;;
21213;SDS011;10764;50.850;2.904;2024-03-17T07:49:31;1214.38;;;999.90;;
21213;SDS011;10764;50.850;2.904;2024-03-17T07:51:57;1215.85;;;999.90;;
21213;SDS011;10764;50.850;2.904;2024-03-17T07:54:24;1220.67;;;999.90;;
21213;SDS011;10764;50.850;2.904;2024-03-17T07:56:50;1216.25;;;999.90;;
21213;SDS011;10764;50.850;2.904;2024-03-17T07:59:17;1217.18;;;999.90;;
21213;SDS011;10764;50.850;2.904;2024-03-17T08:01:43;1215.25;;;999.90;;
21213;SDS011;10764;50.850;2.904;2024-03-17T08:04:09;1218.22;;;999.90;;
21213;SDS011;10764;50.850;2.904;2024-03-17T08:06:40;1212.13;;;999.90;;
21213;SDS011;10764;50.850;2.904;2024-03-17T08:09:09;1214.93;;;999.90;;
21213;SDS011;10764;50.850;2.904;2024-03-17T08:11:36;1212.07;;;999.90;;
21213;SDS011;10764;50.850;2.904;2024-03-17T08:14:02;1219.00;;;999.90;;
21213;SDS011;10764;50.850;2.904;2024-03-17T08:16:28;1214.53;;;999.90;;
21213;SDS011;10764;50.850;2.904;2024-03-17T08:18:55;1215.68;;;999.90;;
21213;SDS011;10764;50.850;2.904;2024-03-17T08:21:22;1214.40;;;999.90;;
21213;SDS011;10764;50.850;2.904;2024-03-17T08:23:50;1215.82;;;999.90;;
21213;SDS011;10764;50.850;2.904;2024-03-17T08:26:19;1216.07;;;999.90;;
21213;SDS011;10764;50.850;2.904;2024-03-17T08:28:45;1217.03;;;999.90;;
21213;SDS011;10764;50.850;2.904;2024-03-17T08:31:12;1215.63;;;999.90;;
21213;SDS011;10764;50.850;2.904;2024-03-17T08:33:43;1214.70;;;999.90;;
21213;SDS011;10764;50.850;2.904;2024-03-17T08:36:09;1215.57;;;999.90;;
21213;SDS011;10764;50.850;2.904;2024-03-17T08:38:36;1213.18;;;999.90;;
21213;SDS011;10764;50.850;2.904;2024-03-17T08:41:07;1210.82;;;999.90;;
21213;SDS011;10764;50.850;2.904;2024-03-17T08:43:36;1214.07;;;999.90;;
21213;SDS011;10764;50.850;2.904;2024-03-17T08:46:06;1213.70;;;999.90;;
21213;SDS011;10764;50.850;2.904;2024-03-17T08:48:35;1214.37;;;999.90;;
21213;SDS011;10764;50.850;2.904;2024-03-17T08:51:04;1217.73;;;999.90;;
21213;SDS011;10764;50.850;2.904;2024-03-17T08:53:31;1214.97;;;999.90;;
21213;SDS011;10764;50.850;2.904;2024-03-17T08:55:58;1218.60;;;999.90;;
21213;SDS011;10764;50.850;2.904;2024-03-17T08:58:24;1215.68;;;999.90;;
21213;SDS011;10764;50.850;2.904;2024-03-17T09:00:51;1217.93;;;999.90;;
21213;SDS011;10764;50.850;2.904;2024-03-17T09:03:18;1224.78;;;999.90;;
21213;SDS011;10764;50.850;2.904;2024-03-17T09:05:45;1222.25;;;999.90;;
21213;SDS011;10764;50.850;2.904;2024-03-17T09:08:16;1226.68;;;999.90;;
21213;SDS011;10764;50.850;2.904;2024-03-17T09:10:48;1225.07;;;999.90;;
21213;SDS011;10764;50.850;2.904;2024-03-17T09:13:19;1220.78;;;999.90;;
21213;SDS011;10764;50.850;2.904;2024-03-17T09:16:04;1224.00;;;999.90;;
21213;SDS011;10764;50.850;2.904;2024-03-17T09:18:31;1227.18;;;999.90;;
21213;SDS011;10764;50.850;2.904;2024-03-17T09:21:02;1229.55;;;999.90;;
21213;SDS011;10764;50.850;2.904;2024-03-17T09:23:32;1232.63;;;999.90;;
21213;SDS011;10764;50.850;2.904;2024-03-17T09:26:03;1225.20;;;999.90;;
21213;SDS011;10764;50.850;2.904;2024-03-17T09:28:31;1225.53;;;999.90;;
21213;SDS011;10764;50.850;2.904;2024-03-17T09:30:59;1224.17;;;999.90;;
21213;SDS011;10764;50.850;2.904;2024-03-17T09:33:26;1224.88;;;999.90;;
21213;SDS011;10764;50.850;2.904;2024-03-17T09:38:24;1221.57;;;999.90;;
21213;SDS011;10764;50.850;2.904;2024-03-17T09:40:51;1224.75;;;999.90;;
21213;SDS011;10764;50.850;2.904;2024-03-17T09:43:23;1224.57;;;999.90;;
21213;SDS011;10764;50.850;2.904;2024-03-17T09:45:51;1219.43;;;999.90;;
21213;SDS011;10764;50.850;2.904;2024-03-17T09:48:23;1216.72;;;999.90;;
21213;SDS011;10764;50.850;2.904;2024-03-17T09:50:51;1220.60;;;999.90;;
21213;SDS011;10764;50.850;2.904;2024-03-17T09:53:28;1221.03;;;999.90;;
21213;SDS011;10764;50.850;2.904;2024-03-17T09:55:57;1220.35;;;999.90;;
21213;SDS011;10764;50.850;2.904;2024-03-17T09:58:23;1220.03;;;999.90;;
21213;SDS011;10764;50.850;2.904;2024-03-17T10:00:49;1221.03;;;999.90;;
21213;SDS011;10764;50.850;2.904;2024-03-17T10:03:57;1221.35;;;999.90;;
21213;SDS011;10764;50.850;2.904;2024-03-17T10:06:08;1221.90;;;999.90;;
21213;SDS011;10764;50.850;2.904;2024-03-17T10:11:14;1216.30;;;999.90;;
21213;SDS011;10764;50.850;2.904;2024-03-17T10:13:42;1216.15;;;999.90;;
21213;SDS011;10764;50.850;2.904;2024-03-17T10:16:22;1222.57;;;999.90;;
21213;SDS011;10764;50.850;2.904;2024-03-17T10:18:50;1224.22;;;999.90;;
21213;SDS011;10764;50.850;2.904;2024-03-17T10:21:30;1215.45;;;999.90;;
21213;SDS011;10764;50.850;2.904;2024-03-17T10:24:12;1216.72;;;999.90;;
21213;SDS011;10764;50.850;2.904;2024-03-17T10:26:42;1218.82;;;999.90;;
21213;SDS011;10764;50.850;2.904;2024-03-17T10:31:47;1223.27;;;999.90;;
21213;SDS011;10764;50.850;2.904;2024-03-17T10:34:14;1219.50;;;999.90;;
21213;SDS011;10764;50.850;2.904;2024-03-17T10:36:48;1222.57;;;999.90;;
21213;SDS011;10764;50.850;2.904;2024-03-17T10:39:24;1228.50;;;999.90;;
21213;SDS011;10764;50.850;2.904;2024-03-17T10:41:56;1229.50;;;999.90;;
21213;SDS011;10764;50.850;2.904;2024-03-17T10:44:24;1220.10;;;999.90;;
21213;SDS011;10764;50.850;2.904;2024-03-17T10:46:50;1216.68;;;999.90;;
21213;SDS011;10764;50.850;2.904;2024-03-17T10:49:19;1218.43;;;999.90;;
21213;SDS011;10764;50.850;2.904;2024-03-17T10:51:46;1219.00;;;999.90;;
21213;SDS011;10764;50.850;2.904;2024-03-17T10:54:18;1220.75;;;999.90;;
21213;SDS011;10764;50.850;2.904;2024-03-17T10:56:53;1224.78;;;999.90;;
21213;SDS011;10764;50.850;2.904;2024-03-17T10:59:39;1223.05;;;999.90;;
21213;SDS011;10764;50.850;2.904;2024-03-17T11:02:16;1231.90;;;999.90;;
21213;SDS011;10764;50.850;2.904;2024-03-17T11:04:54;1222.03;;;999.90;;
21213;SDS011;10764;50.850;2.904;2024-03-17T11:07:22;1254.63;;;999.90;;
21213;SDS011;10764;50.850;2.904;2024-03-17T11:09:50;1281.50;;;999.90;;
21213;SDS011;10764;50.850;2.904;2024-03-17T11:20:36;1217.77;;;999.90;;
21213;SDS011;10764;50.850;2.904;2024-03-17T11:23:03;1215.53;;;999.90;;
21213;SDS011;10764;50.850;2.904;2024-03-17T11:28:01;1218.55;;;999.90;;
21213;SDS011;10764;50.850;2.904;2024-03-17T11:47:00;1212.43;;;999.90;;
21213;SDS011;10764;50.850;2.904;2024-03-17T11:51:55;1222.20;;;999.90;;
21213;SDS011;10764;50.850;2.904;2024-03-17T11:54:26;1250.50;;;999.90;;
21213;SDS011;10764;50.850;2.904;2024-03-17T11:56:55;1260.47;;;999.90;;
21213;SDS011;10764;50.850;2.904;2024-03-17T11:59:32;1222.80;;;999.90;;
21213;SDS011;10764;50.850;2.904;2024-03-17T12:01:59;1225.22;;;999.90;;
21213;SDS011;10764;50.850;2.904;2024-03-17T12:04:26;1230.63;;;999.90;;
21213;SDS011;10764;50.850;2.904;2024-03-17T12:06:53;1225.97;;;999.90;;
21213;SDS011;10764;50.850;2.904;2024-03-17T12:14:29;1264.25;;;999.90;;
21213;SDS011;10764;50.850;2.904;2024-03-17T12:16:56;1210.88;;;999.90;;
21213;SDS011;10764;50.850;2.904;2024-03-17T12:19:24;1216.63;;;999.90;;
21213;SDS011;10764;50.850;2.904;2024-03-17T12:21:52;1205.13;;;999.90;;
21213;SDS011;10764;50.850;2.904;2024-03-17T12:24:20;1205.22;;;999.90;;
21213;SDS011;10764;50.850;2.904;2024-03-17T12:26:48;1207.65;;;999.90;;
21213;SDS011;10764;50.850;2.904;2024-03-17T12:31:48;1216.43;;;999.90;;
21213;SDS011;10764;50.850;2.904;2024-03-17T12:34:15;1223.35;;;999.90;;
21213;SDS011;10764;50.850;2.904;2024-03-17T12:36:41;1214.20;;;999.90;;
21213;SDS011;10764;50.850;2.904;2024-03-17T12:42:11;1215.85;;;999.90;;
21213;SDS011;10764;50.850;2.904;2024-03-17T12:44:52;1216.03;;;999.90;;
21213;SDS011;10764;50.850;2.904;2024-03-17T12:47:26;1210.60;;;999.90;;
21213;SDS011;10764;50.850;2.904;2024-03-17T12:52:21;1217.85;;;999.90;;
21213;SDS011;10764;50.850;2.904;2024-03-17T12:55:01;1216.50;;;999.90;;
21213;SDS011;10764;50.850;2.904;2024-03-17T13:00:57;1208.10;;;999.90;;
21213;SDS011;10764;50.850;2.904;2024-03-17T13:03:25;1210.43;;;999.90;;
21213;SDS011;10764;50.850;2.904;2024-03-17T13:06:02;1197.75;;;999.90;;
21213;SDS011;10764;50.850;2.904;2024-03-17T13:08:31;1202.60;;;999.90;;
21213;SDS011;10764;50.850;2.904;2024-03-17T13:10:58;1214.03;;;999.90;;
21213;SDS011;10764;50.850;2.904;2024-03-17T13:13:24;1227.40;;;999.90;;
21213;SDS011;10764;50.850;2.904;2024-03-17T13:15:50;1223.28;;;999.90;;
21213;SDS011;10764;50.850;2.904;2024-03-17T13:18:17;1227.65;;;999.90;;
21213;SDS011;10764;50.850;2.904;2024-03-17T13:20:44;1234.82;;;999.90;;
21213;SDS011;10764;50.850;2.904;2024-03-17T13:23:11;1220.90;;;999.90;;
21213;SDS011;10764;50.850;2.904;2024-03-17T13:25:38;1210.20;;;999.90;;
21213;SDS011;10764;50.850;2.904;2024-03-17T13:28:05;1212.15;;;999.90;;
21213;SDS011;10764;50.850;2.904;2024-03-17T13:30:32;1206.35;;;999.90;;
21213;SDS011;10764;50.850;2.904;2024-03-17T13:33:02;1204.07;;;999.90;;
21213;SDS011;10764;50.850;2.904;2024-03-17T13:35:34;1208.10;;;999.90;;
21213;SDS011;10764;50.850;2.904;2024-03-17T13:38:04;1204.82;;;999.90;;
21213;SDS011;10764;50.850;2.904;2024-03-17T13:40:32;1208.95;;;999.90;;
21213;SDS011;10764;50.850;2.904;2024-03-17T13:42:59;1208.68;;;999.90;;
21213;SDS011;10764;50.850;2.904;2024-03-17T13:45:26;1215.85;;;999.90;;
21213;SDS011;10764;50.850;2.904;2024-03-17T13:48:01;1219.72;;;999.90;;
21213;SDS011;10764;50.850;2.904;2024-03-17T13:50:31;1240.97;;;999.90;;
21213;SDS011;10764;50.850;2.904;2024-03-17T13:52:59;1219.85;;;999.90;;
21213;SDS011;10764;50.850;2.904;2024-03-17T13:55:28;1222.72;;;999.90;;
21213;SDS011;10764;50.850;2.904;2024-03-17T13:57:56;1249.05;;;999.90;;
21213;SDS011;10764;50.850;2.904;2024-03-17T14:00:24;1239.22;;;999.90;;
21213;SDS011;10764;50.850;2.904;2024-03-17T14:02:55;1213.45;;;999.90;;
21213;SDS011;10764;50.850;2.904;2024-03-17T14:05:22;1215.00;;;999.90;;
21213;SDS011;10764;50.850;2.904;2024-03-17T14:07:51;1216.00;;;999.90;;
21213;SDS011;10764;50.850;2.904;2024-03-17T14:10:18;1212.88;;;999.90;;
21213;SDS011;10764;50.850;2.904;2024-03-17T14:12:45;1211.50;;;999.90;;
21213;SDS011;10764;50.850;2.904;2024-03-17T14:15:12;1208.30;;;999.90;;
21213;SDS011;10764;50.850;2.904;2024-03-17T14:17:43;1212.07;;;999.90;;
21213;SDS011;10764;50.850;2.904;2024-03-17T14:20:10;1221.38;;;999.90;;
21213;SDS011;10764;50.850;2.904;2024-03-17T14:22:39;1235.45;;;999.90;;
21213;SDS011;10764;50.850;2.904;2024-03-17T14:25:07;1260.55;;;999.90;;
21213;SDS011;10764;50.850;2.904;2024-03-17T14:27:37;1283.07;;;999.90;;
21213;SDS011;10764;50.850;2.904;2024-03-17T14:30:04;1231.72;;;999.90;;
21213;SDS011;10764;50.850;2.904;2024-03-17T14:32:31;1202.87;;;999.90;;
21213;SDS011;10764;50.850;2.904;2024-03-17T14:34:57;1195.65;;;999.90;;
21213;SDS011;10764;50.850;2.904;2024-03-17T14:37:26;1195.88;;;999.90;;
21213;SDS011;10764;50.850;2.904;2024-03-17T14:39:52;1204.65;;;999.90;;
21213;SDS011;10764;50.850;2.904;2024-03-17T14:42:19;1210.72;;;999.90;;
21213;SDS011;10764;50.850;2.904;2024-03-17T14:44:46;1215.63;;;999.90;;
21213;SDS011;10764;50.850;2.904;2024-03-17T14:47:15;1225.05;;;999.90;;